Wonthaggi Composite, Australia
Current Conditions -  °F | °C
As of 1:00 AM on Saturday 20 Dec 2014 (Local Time) from YMEN Reporting Station
Broken Clouds Broken Clouds  
Wind Chill: 55°   Ceiling: 3900
Heat Index: 55°   Visibility: 6mi
Dew Point: 46°   Wind: 7mph
Humidity: 72%   Direction: 220°SW
Pressure: 30.09"   Gusts: NA
Location:  38.6°S, 145.58°E
Report Text: YMEN 191400Z AUTO 22006KT 9999 // SCT033 BKN039 13/08 Q1019
Loading
Personal Weather Stations






























Interactive Weather Map New forecast layout! Learn more

10-Day Weather Forecast

Advertisements
Track Severe Weather on mobile